Time;durP1;ratioP1;P1;durP2;ratioP2;P2;SDS_P1;SDS_P2;PMS_P1;PMS_P2;Temp;Humidity;BMP_temperature;BMP_pressure;BME280_temperature;BME280_humidity;BME280_pressure;Samples;Min_cycle;Max_cycle;Signal;HPM_P1;HPM_P2
2022/06/16 00:01:04;;;;;;;11.23;8.80;;;;;;;15.29;100.00;97870.75;5019258;28;20061;-90
2022/06/16 00:03:29;;;;;;;14.95;9.77;;;;;;;15.38;100.00;97883.50;5035893;28;20082;-91
2022/06/16 00:05:55;;;;;;;16.83;9.70;;;;;;;15.39;100.00;97877.16;5035998;28;20108;-91
2022/06/16 00:08:21;;;;;;;21.63;10.18;;;;;;;15.37;100.00;97862.94;5035704;28;20553;-91
2022/06/16 00:13:32;;;;;;;13.63;9.45;;;;;;;15.41;100.00;97869.81;5036365;28;20024;-90
2022/06/16 00:16:01;;;;;;;23.52;9.70;;;;;;;15.50;100.00;97873.69;5019699;28;20028;-91
2022/06/16 00:18:27;;;;;;;15.38;9.48;;;;;;;15.45;100.00;97865.91;5019807;28;20140;-92
2022/06/16 00:20:53;;;;;;;17.98;9.68;;;;;;;15.48;100.00;97868.41;5035321;28;20097;-91
2022/06/16 00:23:18;;;;;;;11.63;8.50;;;;;;;15.40;100.00;97856.47;5020217;28;20040;-91
2022/06/16 00:25:44;;;;;;;10.25;9.07;;;;;;;15.47;100.00;97849.63;5035897;28;20071;-90
2022/06/16 00:28:10;;;;;;;10.45;8.00;;;;;;;15.53;100.00;97855.44;5019658;28;20138;-91
2022/06/16 00:30:35;;;;;;;11.85;8.20;;;;;;;15.55;100.00;97866.97;5000333;28;20029;-91
2022/06/16 00:33:01;;;;;;;15.52;8.45;;;;;;;15.45;100.00;97854.25;5000091;28;20480;-91
2022/06/16 00:35:26;;;;;;;12.60;8.43;;;;;;;15.41;100.00;97859.00;5015523;28;20025;-91
2022/06/16 00:37:52;;;;;;;12.55;9.00;;;;;;;15.40;100.00;97869.94;5035494;28;20033;-90
2022/06/16 00:40:18;;;;;;;13.05;9.30;;;;;;;15.46;100.00;97872.16;5002120;28;20502;-92
2022/06/16 00:42:44;;;;;;;16.38;9.52;;;;;;;15.44;100.00;97858.78;5018631;28;20040;-91
2022/06/16 00:45:44;;;;;;;19.20;9.40;;;;;;;15.55;100.00;97874.19;5035989;28;20037;-90
2022/06/16 00:48:13;;;;;;;17.92;8.98;;;;;;;15.53;100.00;97874.31;5017936;28;20087;-90
2022/06/16 00:50:40;;;;;;;15.82;9.15;;;;;;;15.34;100.00;97854.22;5017889;28;20037;-91
2022/06/16 00:53:06;;;;;;;18.33;9.30;;;;;;;15.33;100.00;97861.44;5035193;28;20492;-90
2022/06/16 00:55:31;;;;;;;15.00;9.00;;;;;;;15.29;100.00;97849.16;5036138;28;20033;-91
2022/06/16 00:57:57;;;;;;;14.68;9.20;;;;;;;15.23;100.00;97852.34;5018519;28;20124;-91
2022/06/16 01:03:07;;;;;;;21.50;10.93;;;;;;;14.96;100.00;97851.72;5015923;28;20119;-91
2022/06/16 01:05:32;;;;;;;20.63;10.70;;;;;;;14.98;100.00;97863.25;5020545;28;20412;-91
2022/06/16 01:07:58;;;;;;;19.48;10.13;;;;;;;14.83;100.00;97849.06;4998057;28;20048;-91
2022/06/16 01:10:30;;;;;;;17.27;10.27;;;;;;;14.79;100.00;97858.38;5018902;28;20029;-90
2022/06/16 01:13:48;;;;;;;22.23;11.50;;;;;;;14.77;100.00;97870.22;5018510;28;20073;-90
2022/06/16 01:16:22;;;;;;;16.75;10.02;;;;;;;14.54;100.00;97836.91;5016764;28;20099;-90
2022/06/16 01:19:09;;;;;;;23.27;11.27;;;;;;;14.63;100.00;97858.63;5015357;28;20040;-91
2022/06/16 01:21:47;;;;;;;20.00;11.30;;;;;;;14.47;100.00;97825.72;5033024;28;20025;-91
2022/06/16 01:24:31;;;;;;;18.50;10.73;;;;;;;14.64;100.00;97857.66;5039472;28;20504;-91
2022/06/16 01:27:29;;;;;;;18.92;10.63;;;;;;;14.62;100.00;97858.75;5021601;28;20053;-92
2022/06/16 01:30:04;;;;;;;24.70;10.65;;;;;;;14.54;100.00;97851.25;5022788;28;20035;-91
2022/06/16 01:32:32;;;;;;;19.73;11.02;;;;;;;14.54;100.00;97847.69;5007194;28;20030;-91
2022/06/16 01:35:17;;;;;;;21.17;10.95;;;;;;;14.52;100.00;97850.47;5038323;28;20091;-91
2022/06/16 01:38:11;;;;;;;14.57;10.95;;;;;;;14.50;100.00;97855.13;5003164;28;20032;-91
2022/06/16 01:40:55;;;;;;;20.35;11.18;;;;;;;14.46;100.00;97850.06;5001916;28;20037;-91
2022/06/16 01:43:38;;;;;;;30.77;11.00;;;;;;;14.51;100.00;97855.97;5018781;28;20087;-91
2022/06/16 01:46:18;;;;;;;17.00;10.60;;;;;;;14.31;100.00;97817.00;5018180;28;20512;-91
2022/06/16 01:48:49;;;;;;;13.18;10.45;;;;;;;14.48;100.00;97851.69;5018207;28;20022;-91
2022/06/16 01:51:24;;;;;;;21.20;11.32;;;;;;;14.52;100.00;97853.16;5001853;28;20036;-93
2022/06/16 01:53:57;;;;;;;15.85;11.60;;;;;;;14.56;100.00;97848.41;5034369;28;20061;-92
2022/06/16 01:56:31;;;;;;;15.80;10.07;;;;;;;14.59;100.00;97848.19;5019268;28;20504;-90
2022/06/16 01:59:02;;;;;;;16.33;9.98;;;;;;;14.50;100.00;97847.03;5034531;28;20030;-92
2022/06/16 02:01:31;;;;;;;15.48;10.20;;;;;;;14.36;100.00;97832.88;5021154;28;20025;-93
2022/06/16 02:04:03;;;;;;;13.75;9.93;;;;;;;14.38;100.00;97836.31;5022184;28;20497;-91
2022/06/16 02:06:32;;;;;;;11.10;9.25;;;;;;;14.47;100.00;97843.72;5021305;28;20033;-92
2022/06/16 02:09:07;;;;;;;15.82;9.57;;;;;;;14.41;100.00;97845.03;5004306;28;20048;-92
2022/06/16 02:11:34;;;;;;;13.95;9.88;;;;;;;14.35;100.00;97840.09;5020905;28;20440;-91
2022/06/16 02:14:06;;;;;;;17.33;10.38;;;;;;;14.37;100.00;97856.09;5018354;28;20034;-91
2022/06/16 02:16:34;;;;;;;17.83;10.23;;;;;;;14.25;100.00;97835.44;5021606;28;20048;-90
2022/06/16 02:19:00;;;;;;;20.58;10.73;;;;;;;14.34;100.00;97862.56;5021305;28;20396;-92
2022/06/16 02:21:42;;;;;;;14.68;10.80;;;;;;;14.33;100.00;97863.56;5037802;28;20489;-90
2022/06/16 02:24:10;;;;;;;17.55;10.40;;;;;;;14.33;100.00;97862.69;5021371;28;20030;-90
2022/06/16 02:26:36;;;;;;;14.32;10.63;;;;;;;14.22;100.00;97858.03;5015046;28;20082;-90
2022/06/16 02:29:22;;;;;;;18.73;11.55;;;;;;;14.26;100.00;97862.25;5017620;28;20041;-90
2022/06/16 02:31:59;;;;;;;18.13;11.00;;;;;;;14.26;100.00;97866.75;5037722;28;20424;-90
2022/06/16 02:35:02;;;;;;;19.15;10.73;;;;;;;14.31;100.00;97875.34;5037569;28;20034;-91
2022/06/16 02:37:59;;;;;;;17.73;10.85;;;;;;;14.19;100.00;97860.94;5021051;28;20029;-90
2022/06/16 02:40:27;;;;;;;21.70;11.00;;;;;;;14.16;100.00;97861.16;5021747;28;20037;-90
2022/06/16 02:43:15;;;;;;;15.63;9.77;;;;;;;13.99;100.00;97848.94;5039092;28;20415;-90
2022/06/16 02:46:04;;;;;;;13.75;10.35;;;;;;;14.01;100.00;97855.06;5022745;28;20488;-90
2022/06/16 02:48:48;;;;;;;16.33;10.38;;;;;;;14.17;100.00;97875.50;5023232;28;20048;-92
2022/06/16 02:51:17;;;;;;;14.43;9.95;;;;;;;13.95;100.00;97851.94;5023713;28;20394;-91
2022/06/16 02:54:11;;;;;;;11.95;9.70;;;;;;;14.01;100.00;97868.50;5023495;28;20029;-92
2022/06/16 02:56:58;;;;;;;15.30;9.90;;;;;;;14.00;100.00;97868.59;5024510;28;20029;-91
2022/06/16 03:00:00;;;;;;;18.23;11.07;;;;;;;13.85;100.00;97853.53;5022880;28;20082;-91
2022/06/16 03:02:27;;;;;;;22.90;10.90;;;;;;;13.85;100.00;97864.28;5037532;28;20045;-90
2022/06/16 03:04:56;;;;;;;15.00;9.70;;;;;;;13.99;100.00;97874.97;5023101;28;20033;-90
2022/06/16 03:07:22;;;;;;;17.48;10.35;;;;;;;13.96;100.00;97867.97;5038520;28;20044;-90
2022/06/16 03:09:48;;;;;;;16.45;10.00;;;;;;;13.97;100.00;97869.69;5022807;28;20120;-91
2022/06/16 03:12:15;;;;;;;21.73;11.68;;;;;;;13.97;100.00;97866.13;5005581;28;20028;-90
2022/06/16 03:14:42;;;;;;;18.45;10.63;;;;;;;14.07;100.00;97869.91;5006225;28;20121;-92
2022/06/16 03:17:08;;;;;;;28.02;12.48;;;;;;;14.07;100.00;97883.34;5037724;28;20025;-90
2022/06/16 03:19:34;;;;;;;25.02;13.20;;;;;;;14.02;100.00;97864.84;5006495;28;20025;-90
2022/06/16 03:22:00;;;;;;;25.08;13.15;;;;;;;13.99;100.00;97837.31;5022197;28;20100;-90
2022/06/16 03:24:26;;;;;;;22.55;12.23;;;;;;;14.20;100.00;97865.38;5022084;28;20097;-90
2022/06/16 03:26:52;;;;;;;32.53;14.82;;;;;;;14.26;100.00;97867.63;5019231;28;20045;-76
2022/06/16 03:29:17;;;;;;;24.80;13.65;;;;;;;14.31;100.00;97867.28;5014779;28;20028;-76
2022/06/16 03:31:43;;;;;;;21.35;13.35;;;;;;;14.28;100.00;97875.56;4998631;28;20029;-76
2022/06/16 03:34:09;;;;;;;33.20;14.27;;;;;;;14.36;100.00;97875.94;5014881;28;20091;-76
2022/06/16 03:36:36;;;;;;;29.33;14.98;;;;;;;14.39;100.00;97870.34;5014732;28;20067;-77
2022/06/16 03:39:04;;;;;;;32.65;13.50;;;;;;;14.53;100.00;97881.81;5030989;28;20017;-76
2022/06/16 03:41:30;;;;;;;24.17;13.32;;;;;;;14.59;100.00;97872.44;5030995;28;20390;-77
2022/06/16 03:43:56;;;;;;;24.63;13.70;;;;;;;14.72;100.00;97869.69;5012732;28;20026;-75
2022/06/16 03:46:21;;;;;;;22.88;13.35;;;;;;;14.89;100.00;97875.56;5031119;28;20025;-76
2022/06/16 03:48:47;;;;;;;21.83;12.82;;;;;;;15.00;100.00;97866.69;5014285;28;20489;-76
2022/06/16 03:51:13;;;;;;;22.98;12.48;;;;;;;15.05;100.00;97862.69;5032223;28;20033;-75
2022/06/16 03:53:39;;;;;;;27.30;11.93;;;;;;;15.12;100.00;97863.06;5011973;28;20021;-86
2022/06/16 03:56:06;;;;;;;31.52;12.25;;;;;;;15.24;100.00;97863.97;5029908;28;20033;-84
2022/06/16 03:58:32;;;;;;;26.58;12.63;;;;;;;15.25;100.00;97858.50;5031178;28;20496;-76
2022/06/16 04:00:57;;;;;;;23.52;12.30;;;;;;;15.32;100.00;97861.59;5030616;28;20089;-76
2022/06/16 04:06:09;;;;;;;21.60;12.80;;;;;;;15.55;100.00;97869.66;5016994;28;20060;-75
2022/06/16 04:08:37;;;;;;;20.75;12.85;;;;;;;15.67;100.00;97870.53;4998042;28;20028;-75
2022/06/16 04:11:26;;;;;;;21.67;12.18;;;;;;;15.86;100.00;97869.97;5030489;28;20167;-75
2022/06/16 04:13:48;;;;;;;23.55;11.95;;;;;;;16.07;100.00;97868.28;5002102;28;20029;-76
2022/06/16 04:16:13;;;;;;;18.30;12.75;;;;;;;16.31;100.00;97876.28;5039445;28;20051;-75
2022/06/16 04:18:39;;;;;;;25.13;11.73;;;;;;;16.42;100.00;97868.19;5035348;28;20017;-78
2022/06/16 04:21:05;;;;;;;20.92;12.38;;;;;;;16.56;100.00;97859.84;5010599;28;20036;-77
2022/06/16 04:23:30;;;;;;;21.33;12.05;;;;;;;16.64;100.00;97860.13;5028741;28;20018;-77
2022/06/16 04:25:56;;;;;;;20.98;12.70;;;;;;;16.72;100.00;97865.75;5012355;28;20044;-77
2022/06/16 04:28:21;;;;;;;32.95;13.75;;;;;;;16.76;100.00;97867.22;5014006;28;20079;-76
2022/06/16 04:30:47;;;;;;;18.92;12.07;;;;;;;16.86;100.00;97859.22;5030427;28;20035;-74
2022/06/16 04:33:13;;;;;;;25.42;12.07;;;;;;;17.01;100.00;97860.66;5014138;28;20022;-83
2022/06/16 04:35:38;;;;;;;16.70;11.13;;;;;;;16.88;100.00;97855.41;5009080;28;20025;-85
2022/06/16 04:38:04;;;;;;;23.08;11.05;;;;;;;17.05;100.00;97862.97;5014168;28;20029;-86
2022/06/16 04:40:29;;;;;;;20.40;10.32;;;;;;;17.07;100.00;97866.38;5014932;28;20025;-85
2022/06/16 04:42:55;;;;;;;24.38;11.63;;;;;;;17.16;100.00;97860.25;5015002;28;20072;-86
2022/06/16 04:45:22;;;;;;;27.88;11.15;;;;;;;17.16;100.00;97864.78;4997880;28;20035;-86
2022/06/16 04:47:48;;;;;;;37.15;12.63;;;;;;;17.04;100.00;97855.00;5014353;28;20083;-85
2022/06/16 04:50:18;;;;;;;36.03;12.73;;;;;;;17.30;100.00;97856.34;5014833;28;20472;-85
2022/06/16 04:52:47;;;;;;;28.73;14.73;;;;;;;17.49;100.00;97861.06;5030460;28;20480;-83
2022/06/16 04:55:15;;;;;;;20.90;12.32;;;;;;;17.49;100.00;97861.94;5013802;28;20029;-85
2022/06/16 04:57:41;;;;;;;26.15;11.52;;;;;;;18.56;100.00;97854.38;4998981;28;20028;-85
2022/06/16 05:00:07;;;;;;;25.52;10.85;;;;;;;20.26;98.88;97860.22;5016453;28;20025;-83
2022/06/16 05:02:33;;;;;;;18.65;9.55;;;;;;;21.50;87.64;97862.31;5033403;28;20033;-84
2022/06/16 05:04:58;;;;;;;20.63;10.00;;;;;;;21.71;83.93;97861.16;5031337;28;20033;-85
2022/06/16 05:07:24;;;;;;;14.98;9.15;;;;;;;21.50;83.95;97862.31;5014572;28;20032;-85
2022/06/16 05:09:49;;;;;;;18.08;9.98;;;;;;;20.44;88.50;97863.88;5031050;28;20596;-83
2022/06/16 05:12:15;;;;;;;19.90;10.20;;;;;;;19.88;93.90;97856.56;5014069;28;20021;-84
2022/06/16 05:14:41;;;;;;;18.10;9.77;;;;;;;19.37;99.49;97856.00;5014109;28;20017;-85
2022/06/16 05:17:07;;;;;;;34.65;21.48;;;;;;;19.29;100.00;97853.09;5013348;28;20094;-76
2022/06/16 05:19:32;;;;;;;15.75;9.52;;;;;;;19.30;100.00;97850.28;5006778;28;20036;-76
2022/06/16 05:22:00;;;;;;;15.98;9.80;;;;;;;19.56;100.00;97861.47;5024143;28;20038;-76
2022/06/16 05:24:27;;;;;;;13.30;10.30;;;;;;;20.55;95.78;97859.13;5045007;28;20036;-75
2022/06/16 05:26:53;;;;;;;14.30;9.32;;;;;;;22.99;82.51;97857.59;5026470;28;20045;-76
2022/06/16 05:29:22;;;;;;;18.60;9.07;;;;;;;24.92;69.95;97859.56;5013583;28;20032;-76
2022/06/16 05:31:48;;;;;;;13.25;8.65;;;;;;;23.61;70.42;97864.44;5029827;28;20025;-78
2022/06/16 05:34:13;;;;;;;18.83;11.05;;;;;;;23.45;70.82;97868.00;5046002;28;20060;-76
2022/06/16 05:36:39;;;;;;;45.63;26.65;;;;;;;23.87;69.95;97867.88;5039101;28;20040;-76
2022/06/16 05:39:05;;;;;;;15.73;8.52;;;;;;;25.26;63.78;97851.88;5012071;28;20112;-76
2022/06/16 05:41:31;;;;;;;19.00;9.13;;;;;;;25.96;60.52;97864.63;5016782;28;20029;-74
2022/06/16 05:43:56;;;;;;;20.40;9.20;;;;;;;26.56;58.52;97853.63;5010486;28;20033;-75
2022/06/16 05:46:23;;;;;;;16.20;10.00;;;;;;;27.26;56.39;97852.13;5045519;28;20021;-76
2022/06/16 05:48:50;;;;;;;26.35;9.13;;;;;;;28.12;53.52;97845.72;5009570;28;20041;-76
2022/06/16 05:51:16;;;;;;;17.38;8.77;;;;;;;27.47;53.65;97845.88;5008950;28;20401;-76
2022/06/16 05:53:42;;;;;;;23.58;9.95;;;;;;;28.06;52.58;97842.91;5029276;28;20459;-78
2022/06/16 05:56:08;;;;;;;16.27;9.40;;;;;;;28.07;52.85;97848.22;5029178;28;20030;-76
2022/06/16 05:58:34;;;;;;;17.58;8.35;;;;;;;29.24;49.07;97846.53;5012794;28;20029;-75
2022/06/16 06:01:00;;;;;;;15.63;7.80;;;;;;;29.34;49.75;97845.13;5012922;28;20112;-75
2022/06/16 06:03:25;;;;;;;24.55;8.30;;;;;;;28.49;50.46;97850.91;5012932;28;20108;-76
2022/06/16 06:05:51;;;;;;;21.33;8.10;;;;;;;29.10;49.17;97850.28;5012815;28;20083;-77
2022/06/16 06:16:38;;;;;;;12.75;7.78;;;;;;;28.86;49.49;97848.84;5028136;28;20048;-76
2022/06/16 06:19:25;;;;;;;16.93;7.47;;;;;;;28.50;49.53;97846.25;5000402;28;20029;-79
2022/06/16 06:22:13;;;;;;;15.43;8.10;;;;;;;27.71;51.85;97861.16;5047057;28;20030;-75
2022/06/16 06:24:52;;;;;;;14.50;8.13;;;;;;;28.60;50.26;97854.16;4998979;28;20535;-79
2022/06/16 06:27:37;;;;;;;10.43;6.65;;;;;;;29.39;48.47;97844.50;4999835;28;20531;-77
2022/06/16 06:30:15;;;;;;;10.88;6.82;;;;;;;29.43;48.02;97835.59;5033288;28;20065;-77
2022/06/16 06:32:41;;;;;;;18.02;7.10;;;;;;;31.45;43.74;97838.56;5014177;28;20068;-75
2022/06/16 06:35:08;;;;;;;13.88;6.78;;;;;;;32.51;41.39;97834.09;5015684;28;20075;-75
2022/06/16 06:37:33;;;;;;;12.30;6.85;;;;;;;32.02;42.43;97837.63;5012884;28;20496;-76
2022/06/16 06:39:59;;;;;;;12.05;6.35;;;;;;;31.63;43.54;97835.94;5044849;28;20037;-76
2022/06/16 06:42:25;;;;;;;10.90;6.72;;;;;;;31.61;43.35;97840.88;5032254;28;20044;-77
2022/06/16 06:44:51;;;;;;;28.58;8.32;;;;;;;31.31;43.43;97838.84;5013367;28;20040;-77
2022/06/16 06:47:30;;;;;;;16.00;7.70;;;;;;;33.04;40.30;97833.59;4999217;28;20404;-77
2022/06/16 06:49:56;;;;;;;9.90;7.10;;;;;;;31.78;41.31;97832.06;5012137;28;20080;-78
2022/06/16 06:52:22;;;;;;;18.50;7.50;;;;;;;31.08;43.26;97836.56;5020374;28;20061;-78
2022/06/16 06:54:48;;;;;;;17.27;8.45;;;;;;;30.55;44.00;97841.31;5043059;28;20385;-75
2022/06/16 06:57:17;;;;;;;19.70;8.63;;;;;;;30.55;45.04;97844.94;5034774;28;20188;-77
2022/06/16 06:59:42;;;;;;;18.48;8.10;;;;;;;31.59;42.70;97836.63;5013175;28;20018;-77
2022/06/16 07:02:11;;;;;;;16.10;8.02;;;;;;;30.84;44.25;97832.56;5040121;28;20052;-77
2022/06/16 07:04:38;;;;;;;12.98;9.07;;;;;;;30.18;46.27;97837.25;5048228;28;20122;-77
2022/06/16 07:07:04;;;;;;;13.05;8.45;;;;;;;32.42;41.23;97832.69;5015679;28;20029;-76
2022/06/16 07:09:29;;;;;;;17.65;8.23;;;;;;;30.73;43.69;97836.00;5032920;28;20026;-76
2022/06/16 07:11:55;;;;;;;17.60;8.52;;;;;;;30.28;44.75;97832.19;5015447;28;20393;-77
2022/06/16 07:14:20;;;;;;;13.20;8.15;;;;;;;31.58;43.68;97830.25;5040391;28;20025;-77
2022/06/16 07:16:49;;;;;;;16.50;8.23;;;;;;;34.07;39.51;97818.59;5030713;28;20025;-77
2022/06/16 07:19:15;;;;;;;15.43;7.50;;;;;;;34.02;39.11;97804.56;5039880;28;20631;-77
2022/06/16 07:21:41;;;;;;;14.27;7.25;;;;;;;32.78;40.61;97817.22;5015056;28;20053;-78
2022/06/16 07:24:06;;;;;;;12.77;7.43;;;;;;;31.86;42.02;97823.47;5011943;28;20555;-76
2022/06/16 07:26:33;;;;;;;12.02;7.47;;;;;;;34.90;37.97;97812.06;5036129;28;20455;-77
2022/06/16 07:29:00;;;;;;;18.15;7.40;;;;;;;35.31;36.63;97810.00;5015055;28;20030;-77
2022/06/16 07:31:27;;;;;;;19.42;7.00;;;;;;;35.02;36.80;97799.00;5012809;28;20508;-77
2022/06/16 07:33:53;;;;;;;13.55;7.65;;;;;;;32.40;40.83;97814.56;5036330;28;20096;-77
2022/06/16 07:36:19;;;;;;;13.88;7.32;;;;;;;33.19;39.95;97814.66;5040437;28;20024;-77
2022/06/16 07:38:46;;;;;;;16.65;7.88;;;;;;;32.33;40.72;97813.78;5019895;28;20025;-79
2022/06/16 07:43:56;;;;;;;17.88;7.10;;;;;;;32.15;42.20;97809.00;5034198;28;20087;-77
2022/06/16 07:46:26;;;;;;;10.55;6.40;;;;;;;32.60;40.91;97805.03;5037421;28;20025;-78
2022/06/16 07:48:52;;;;;;;15.52;7.50;;;;;;;33.25;39.21;97795.13;5013842;28;20029;-77
2022/06/16 07:51:19;;;;;;;14.35;7.15;;;;;;;34.90;35.22;97789.81;5032059;28;20444;-77
2022/06/16 07:53:45;;;;;;;22.05;8.15;;;;;;;32.88;37.67;97784.28;5043366;28;20035;-76
2022/06/16 07:56:11;;;;;;;16.52;6.30;;;;;;;33.77;36.12;97790.00;5014651;28;20044;-78
2022/06/16 07:58:39;;;;;;;10.07;6.03;;;;;;;34.15;36.18;97786.84;5039483;28;20025;-78
2022/06/16 08:01:07;;;;;;;15.05;7.25;;;;;;;35.22;35.02;97782.81;5031995;28;20017;-78
2022/06/16 08:03:36;;;;;;;8.35;6.68;;;;;;;35.65;33.42;97776.75;5014668;28;20025;-78
2022/06/16 08:06:06;;;;;;;11.60;6.60;;;;;;;36.34;32.70;97781.94;5012588;28;20464;-77
2022/06/16 08:08:32;;;;;;;13.10;8.18;;;;;;;37.60;31.16;97777.41;4998144;28;20026;-77
2022/06/16 08:10:57;;;;;;;7.20;5.30;;;;;;;36.82;31.00;97773.00;5038022;28;20133;-78
2022/06/16 08:13:24;;;;;;;10.02;5.95;;;;;;;35.87;32.50;97769.38;5034276;28;20475;-77
2022/06/16 08:15:50;;;;;;;8.82;5.85;;;;;;;36.43;31.13;97774.00;5035532;28;20021;-77
2022/06/16 08:18:19;;;;;;;8.57;5.97;;;;;;;36.22;32.04;97774.75;5014370;28;20454;-77
2022/06/16 08:20:45;;;;;;;11.52;5.85;;;;;;;34.39;33.17;97777.50;5045674;28;20017;-77
2022/06/16 08:23:11;;;;;;;8.55;6.78;;;;;;;35.00;33.71;97784.50;5011100;28;20026;-77
2022/06/16 08:25:37;;;;;;;7.70;5.93;;;;;;;35.30;32.26;97774.06;4997665;28;20403;-77
2022/06/16 08:28:03;;;;;;;11.93;6.15;;;;;;;36.72;30.63;97774.75;5012134;28;20049;-77
2022/06/16 08:30:30;;;;;;;10.70;6.05;;;;;;;35.79;31.82;97770.63;5040088;28;20025;-76
2022/06/16 08:32:55;;;;;;;9.98;5.22;;;;;;;36.17;30.89;97763.53;5012154;28;20477;-77
2022/06/16 08:35:21;;;;;;;12.35;5.13;;;;;;;35.53;30.93;97767.56;5041039;28;20033;-77
2022/06/16 08:37:47;;;;;;;9.75;6.40;;;;;;;34.73;32.72;97776.66;5010911;28;20143;-78
2022/06/16 08:40:13;;;;;;;9.23;5.50;;;;;;;35.51;32.38;97772.53;4994293;28;20025;-77
2022/06/16 08:42:50;;;;;;;7.43;5.45;;;;;;;36.71;30.81;97776.72;5010654;28;20022;-77
2022/06/16 08:45:34;;;;;;;6.50;5.68;;;;;;;39.08;28.78;97767.28;5046212;28;20116;-76
2022/06/16 08:48:30;;;;;;;11.65;5.97;;;;;;;39.84;28.06;97768.47;5010637;28;20040;-77
2022/06/16 08:51:05;;;;;;;6.82;6.03;;;;;;;40.98;26.54;97767.16;5011964;28;20480;-78
2022/06/16 08:53:49;;;;;;;9.68;5.22;;;;;;;39.67;28.13;97767.88;5025536;28;20029;-77
2022/06/16 08:56:19;;;;;;;12.02;7.22;;;;;;;39.35;29.35;97776.41;5031564;28;20064;-77
2022/06/16 08:58:58;;;;;;;9.35;5.72;;;;;;;38.71;29.97;97777.66;5030044;28;20550;-78
2022/06/16 09:01:41;;;;;;;13.60;7.38;;;;;;;38.14;30.86;97769.06;5030063;28;20030;-76
2022/06/16 09:04:19;;;;;;;12.30;7.57;;;;;;;38.29;29.74;97764.44;5030010;28;20125;-79
2022/06/16 09:06:51;;;;;;;10.63;5.45;;;;;;;38.01;30.77;97775.06;5014012;28;20025;-79
2022/06/16 09:12:55;;;;;;;8.80;7.07;;;;;;;37.88;31.36;97771.56;5031423;28;20462;-78
2022/06/16 09:15:48;;;;;;;8.52;6.10;;;;;;;38.09;30.23;97772.63;5033439;28;20026;-77
2022/06/16 09:18:21;;;;;;;10.85;7.03;;;;;;;35.08;34.05;97768.28;5013157;28;20075;-79
2022/06/16 09:21:08;;;;;;;7.25;6.30;;;;;;;33.72;36.19;97765.72;5017634;28;20423;-79
2022/06/16 09:23:52;;;;;;;6.78;6.10;;;;;;;31.92;38.58;97772.75;5016366;28;20029;-78
2022/06/16 09:26:32;;;;;;;10.02;6.53;;;;;;;33.98;35.15;97769.16;5012705;28;20508;-78
2022/06/16 09:29:09;;;;;;;7.57;6.38;;;;;;;36.19;31.39;97752.97;5031082;28;20029;-78
2022/06/16 09:31:46;;;;;;;10.48;5.95;;;;;;;38.14;29.59;97747.53;5029639;28;20021;-78
2022/06/16 09:34:18;;;;;;;13.30;7.75;;;;;;;38.35;29.45;97745.78;5013128;28;20511;-78
2022/06/16 09:36:51;;;;;;;10.23;6.88;;;;;;;38.38;29.68;97748.06;5029545;28;20040;-77
2022/06/16 09:39:22;;;;;;;10.57;5.68;;;;;;;36.98;31.01;97736.94;5029457;28;20476;-77
2022/06/16 09:45:24;;;;;;;11.98;6.28;;;;;;;37.82;29.81;97727.06;5020174;28;20566;-77
2022/06/16 09:48:10;;;;;;;7.55;6.03;;;;;;;40.38;27.18;97720.31;5007355;28;20041;-78
2022/06/16 09:50:40;;;;;;;6.68;5.03;;;;;;;40.65;25.81;97712.47;5025367;28;20476;-78
2022/06/16 09:53:15;;;;;;;14.05;8.48;;;;;;;38.14;28.47;97714.00;5034514;28;20060;-78
2022/06/16 09:55:47;;;;;;;6.78;6.07;;;;;;;36.81;30.70;97714.66;5025536;28;20026;-78
2022/06/16 09:58:42;;;;;;;11.93;6.18;;;;;;;35.85;32.69;97732.56;5017006;28;20459;-78
2022/06/16 10:01:09;;;;;;;9.57;5.47;;;;;;;35.49;31.97;97722.69;5009295;28;20424;-78
2022/06/16 10:03:39;;;;;;;6.88;5.97;;;;;;;32.86;36.04;97733.75;5033408;28;20057;-77
2022/06/16 10:06:14;;;;;;;7.50;6.20;;;;;;;32.07;37.64;97742.84;5017402;28;20407;-77
2022/06/16 10:08:43;;;;;;;14.57;6.75;;;;;;;31.20;40.53;97740.81;5016910;28;20028;-78
2022/06/16 10:11:16;;;;;;;14.23;6.50;;;;;;;30.50;41.70;97736.16;5034340;28;20096;-77
2022/06/16 10:13:50;;;;;;;14.45;6.75;;;;;;;29.65;43.11;97755.47;5033351;28;20022;-78
2022/06/16 10:16:18;;;;;;;13.02;6.43;;;;;;;30.35;42.37;97750.19;5000372;28;20518;-78
2022/06/16 10:18:46;;;;;;;10.10;7.05;;;;;;;30.26;42.60;97743.19;4997371;28;20033;-77
2022/06/16 10:21:12;;;;;;;16.42;6.57;;;;;;;32.18;38.41;97740.19;5030150;28;20527;-78
2022/06/16 10:23:49;;;;;;;15.05;6.63;;;;;;;33.23;36.66;97735.44;5033193;28;20132;-78
2022/06/16 10:26:14;;;;;;;21.73;6.13;;;;;;;35.63;32.45;97712.94;5016602;28;20047;-78
2022/06/16 10:28:59;;;;;;;18.77;5.63;;;;;;;36.27;31.30;97707.97;5033001;28;20096;-78
2022/06/16 10:31:37;;;;;;;9.27;6.22;;;;;;;36.52;31.34;97708.38;5016134;28;20033;-78
2022/06/16 10:34:04;;;;;;;7.13;5.70;;;;;;;36.08;31.14;97701.81;5034425;28;20036;-78
2022/06/16 10:36:30;;;;;;;10.60;5.82;;;;;;;36.63;30.55;97687.91;5015484;28;20041;-78
2022/06/16 10:39:14;;;;;;;11.75;5.88;;;;;;;36.37;30.77;97691.38;5033005;28;20029;-78
2022/06/16 10:42:01;;;;;;;6.38;5.78;;;;;;;36.11;31.12;97698.53;5033932;28;20116;-78
2022/06/16 10:44:28;;;;;;;9.68;5.85;;;;;;;36.79;30.42;97691.75;5032194;28;20511;-78
2022/06/16 10:46:57;;;;;;;11.52;5.88;;;;;;;37.03;29.78;97675.63;5032832;28;20115;-78
2022/06/16 10:49:31;;;;;;;8.07;5.28;;;;;;;39.03;27.77;97683.28;5008035;28;20044;-78
2022/06/16 10:52:05;;;;;;;7.47;5.75;;;;;;;37.51;28.88;97670.06;5016361;28;20029;-78
2022/06/16 10:54:32;;;;;;;12.95;6.10;;;;;;;36.18;30.81;97676.06;5031002;28;20662;-78
2022/06/16 10:57:19;;;;;;;9.23;5.75;;;;;;;36.21;31.23;97683.91;5016125;28;20037;-77
2022/06/16 11:00:03;;;;;;;6.90;5.07;;;;;;;36.01;32.52;97677.97;4996191;28;20037;-78
2022/06/16 11:02:32;;;;;;;6.40;5.03;;;;;;;38.16;28.54;97671.78;5030293;28;20037;-78
2022/06/16 11:05:03;;;;;;;15.82;6.22;;;;;;;37.45;30.43;97688.72;5032820;28;20057;-77
2022/06/16 11:07:36;;;;;;;6.65;5.25;;;;;;;36.67;29.79;97669.53;5032282;28;20072;-77
2022/06/16 11:10:09;;;;;;;12.05;5.50;;;;;;;35.47;31.64;97677.53;5015983;28;20036;-77
2022/06/16 11:12:37;;;;;;;8.88;5.88;;;;;;;34.45;32.17;97678.41;5032025;28;20104;-81
2022/06/16 11:15:21;;;;;;;10.45;5.93;;;;;;;32.88;35.02;97673.41;5023372;28;20455;-81
2022/06/16 11:17:50;;;;;;;15.07;6.60;;;;;;;31.31;38.21;97675.69;5015226;28;20496;-82
2022/06/16 11:20:31;;;;;;;13.05;6.30;;;;;;;30.43;39.42;97683.72;5032484;28;20517;-82
2022/06/16 11:22:57;;;;;;;30.10;6.50;;;;;;;29.37;41.57;97697.75;5015884;28;20029;-82
2022/06/16 11:25:30;;;;;;;28.02;7.93;;;;;;;29.35;43.39;97706.19;5016373;28;20026;-81
2022/06/16 11:28:12;;;;;;;12.18;6.65;;;;;;;29.73;42.92;97706.47;5011376;28;20070;-77
2022/06/16 11:30:38;;;;;;;;;;;;;;;30.20;42.66;97694.38;4973210;28;20030;-78
2022/06/16 11:33:06;;;;;;;9.48;6.05;;;;;;;31.42;40.23;97700.72;5001067;28;20004;-78
2022/06/16 11:35:38;;;;;;;14.88;6.28;;;;;;;32.62;38.28;97686.50;4959928;28;20037;-79
2022/06/16 11:38:03;;;;;;;;;;;;;;;32.54;38.78;97686.78;4976620;28;20034;-78
2022/06/16 11:40:29;;;;;;;14.77;6.50;;;;;;;31.95;39.51;97692.88;4993286;28;19914;-79
2022/06/16 11:43:21;;;;;;;14.43;6.32;;;;;;;31.35;40.26;97694.38;4976138;28;20469;-78
2022/06/16 11:45:53;;;;;;;;;;;;;;;33.02;37.86;97692.38;4991313;28;20034;-79
2022/06/16 11:48:30;;;;;;;10.05;5.22;;;;;;;34.77;33.80;97668.56;4979646;28;19917;-79
2022/06/16 11:51:25;;;;;;;5.88;5.28;;;;;;;35.92;32.50;97671.97;5007525;28;20041;-79
2022/06/16 11:54:09;;;;;;;17.40;6.97;;;;;;;35.14;33.52;97663.53;4983327;28;20018;-79
2022/06/16 11:56:46;;;;;;;14.30;5.43;;;;;;;36.41;32.81;97665.53;4981003;28;20057;-79
2022/06/16 11:59:44;;;;;;;7.00;5.53;;;;;;;36.89;31.67;97652.81;5007869;28;20022;-79
2022/06/16 12:02:42;;;;;;;7.68;6.85;;;;;;;37.88;29.47;97654.22;4988715;28;20050;-79
2022/06/16 12:05:26;;;;;;;6.80;5.07;;;;;;;38.75;28.84;97653.75;4992924;28;20390;-78
2022/06/16 12:07:56;;;;;;;8.10;5.80;;;;;;;38.78;28.40;97639.22;4975790;28;20034;-78